KLM692 CYYZ-EHAM
Flight info
| Callsign | KLM692 |
|---|---|
| Flight time | 6h 17m |
| Altitude | 35000 |
| Route | VERDO7 IPTOS Q921 AGLUK DCT ANCER DCT TABRU DCT JANJO/M083F370 DCT 56N050W 57N040W 58N030W 58N020W DCT SUNOT DCT KESIX/N0475F370 DCT AMLAD DCT ERKIT N110 DOLAS L603 LAMSO |
| Aircraft | B772/H-SDE2E3FGHIJ5LORVWXY/LB1D1 |
Departure
| Time | 2026-05-06 20:01 |
|---|---|
| Airport | Toronto Pearson International Airport (CYYZ) |
Arrival
| Time | 2026-05-07 02:18 |
|---|---|
| Airport | Amsterdam Airport Schiphol (EHAM) |
| Time | Latitude | Longitude | Altitude | Speed | Heading |
|---|---|---|---|---|---|
| 2026-05-06 19:28 | 43.68307 | -79.62127 | 566 ft | 0 kts | 112° |
| 2026-05-06 19:47 | 43.68308 | -79.62131 | 566 ft | 3 kts | 112° |
| 2026-05-06 19:47 | 43.68316 | -79.62157 | 566 ft | 3 kts | 112° |
| 2026-05-06 19:48 | 43.68324 | -79.62184 | 566 ft | 3 kts | 107° |
| 2026-05-06 19:48 | 43.68327 | -79.62220 | 566 ft | 4 kts | 83° |
| 2026-05-06 19:48 | 43.68320 | -79.62257 | 566 ft | 4 kts | 63° |
| 2026-05-06 19:48 | 43.68305 | -79.62288 | 575 ft | 4 kts | 44° |
| 2026-05-06 19:49 | 43.68283 | -79.62309 | 566 ft | 4 kts | 11° |
| 2026-05-06 19:49 | 43.68258 | -79.62305 | 575 ft | 4 kts | 323° |
| 2026-05-06 19:49 | 43.68237 | -79.62281 | 566 ft | 3 kts | 320° |
| 2026-05-06 19:49 | 43.68236 | -79.62280 | 566 ft | 0 kts | 320° |
| 2026-05-06 19:52 | 43.68244 | -79.62290 | 566 ft | 5 kts | 320° |
| 2026-05-06 19:52 | 43.68274 | -79.62325 | 566 ft | 5 kts | 318° |
| 2026-05-06 19:52 | 43.68279 | -79.62332 | 566 ft | 0 kts | 311° |
| 2026-05-06 19:52 | 43.68280 | -79.62334 | 566 ft | 2 kts | 310° |
| 2026-05-06 19:53 | 43.68295 | -79.62377 | 566 ft | 8 kts | 281° |
| 2026-05-06 19:53 | 43.68272 | -79.62442 | 570 ft | 10 kts | 245° |
| 2026-05-06 19:53 | 43.68309 | -79.62529 | 567 ft | 14 kts | 319° |
| 2026-05-06 19:53 | 43.68393 | -79.62639 | 572 ft | 19 kts | 317° |
| 2026-05-06 19:54 | 43.68488 | -79.62761 | 573 ft | 19 kts | 316° |
| 2026-05-06 19:54 | 43.68581 | -79.62884 | 566 ft | 19 kts | 316° |
| 2026-05-06 19:54 | 43.68675 | -79.63009 | 566 ft | 19 kts | 316° |
| 2026-05-06 19:54 | 43.68769 | -79.63133 | 569 ft | 19 kts | 316° |
| 2026-05-06 19:55 | 43.68863 | -79.63255 | 566 ft | 18 kts | 317° |
| 2026-05-06 19:55 | 43.68947 | -79.63364 | 575 ft | 16 kts | 318° |
| 2026-05-06 19:55 | 43.69029 | -79.63466 | 577 ft | 15 kts | 317° |
| 2026-05-06 19:55 | 43.69078 | -79.63556 | 576 ft | 11 kts | 275° |
| 2026-05-06 19:56 | 43.69039 | -79.63640 | 578 ft | 11 kts | 227° |
| 2026-05-06 19:56 | 43.68988 | -79.63716 | 577 ft | 11 kts | 227° |
| 2026-05-06 19:56 | 43.68938 | -79.63791 | 574 ft | 11 kts | 226° |
| 2026-05-06 19:56 | 43.68887 | -79.63865 | 578 ft | 11 kts | 226° |
| 2026-05-06 19:57 | 43.68836 | -79.63940 | 575 ft | 11 kts | 226° |
| 2026-05-06 19:57 | 43.68776 | -79.64027 | 577 ft | 14 kts | 226° |
| 2026-05-06 19:57 | 43.68699 | -79.64139 | 571 ft | 17 kts | 226° |
| 2026-05-06 19:57 | 43.68611 | -79.64264 | 577 ft | 19 kts | 226° |
| 2026-05-06 19:58 | 43.68514 | -79.64404 | 568 ft | 21 kts | 226° |
| 2026-05-06 19:58 | 43.68414 | -79.64549 | 572 ft | 21 kts | 227° |
| 2026-05-06 19:58 | 43.68315 | -79.64695 | 580 ft | 21 kts | 227° |
| 2026-05-06 19:58 | 43.68218 | -79.64839 | 579 ft | 21 kts | 226° |
| 2026-05-06 19:59 | 43.68113 | -79.64989 | 578 ft | 26 kts | 226° |
| 2026-05-06 19:59 | 43.67965 | -79.65200 | 575 ft | 31 kts | 226° |
| 2026-05-06 19:59 | 43.67819 | -79.65410 | 574 ft | 30 kts | 227° |
| 2026-05-06 19:59 | 43.67676 | -79.65620 | 576 ft | 30 kts | 226° |
| 2026-05-06 20:00 | 43.67531 | -79.65826 | 579 ft | 30 kts | 227° |
| 2026-05-06 20:00 | 43.67392 | -79.66034 | 574 ft | 26 kts | 227° |
| 2026-05-06 20:00 | 43.67365 | -79.66221 | 574 ft | 19 kts | 314° |
| 2026-05-06 20:00 | 43.67493 | -79.66260 | 570 ft | 27 kts | 28° |
| 2026-05-06 20:01 | 43.67788 | -79.65861 | 576 ft | 95 kts | 45° |
| 2026-05-06 20:01 | 43.68405 | -79.64988 | 578 ft | 156 kts | 45° |
| 2026-05-06 20:01 | 43.69207 | -79.63852 | 1023 ft | 172 kts | 44° |
| 2026-05-06 20:01 | 43.70070 | -79.62662 | 1708 ft | 178 kts | 37° |
| 2026-05-06 20:02 | 43.71078 | -79.61625 | 2477 ft | 180 kts | 34° |
| 2026-05-06 20:02 | 43.72189 | -79.60561 | 2743 ft | 208 kts | 31° |
| 2026-05-06 20:02 | 43.73392 | -79.59316 | 2934 ft | 228 kts | 49° |
| 2026-05-06 20:02 | 43.73998 | -79.57199 | 3242 ft | 249 kts | 83° |
| 2026-05-06 20:03 | 43.74061 | -79.54740 | 3650 ft | 261 kts | 86° |
| 2026-05-06 20:03 | 43.74098 | -79.52210 | 4163 ft | 267 kts | 86° |
| 2026-05-06 20:03 | 43.74167 | -79.49629 | 4818 ft | 271 kts | 86° |
| 2026-05-06 20:03 | 43.74256 | -79.46992 | 5467 ft | 275 kts | 86° |
| 2026-05-06 20:04 | 43.74357 | -79.44321 | 6033 ft | 281 kts | 86° |
| 2026-05-06 20:04 | 43.74464 | -79.41632 | 6608 ft | 286 kts | 86° |
| 2026-05-06 20:04 | 43.74577 | -79.38870 | 7243 ft | 288 kts | 86° |
| 2026-05-06 20:04 | 43.74693 | -79.36083 | 7809 ft | 293 kts | 86° |
| 2026-05-06 20:05 | 43.74816 | -79.33247 | 8360 ft | 297 kts | 87° |
| 2026-05-06 20:05 | 43.74938 | -79.30365 | 8905 ft | 302 kts | 87° |
| 2026-05-06 20:05 | 43.75057 | -79.27451 | 9439 ft | 306 kts | 87° |
| 2026-05-06 20:05 | 43.75187 | -79.24490 | 9910 ft | 312 kts | 88° |
| 2026-05-06 20:06 | 43.75319 | -79.21465 | 10254 ft | 322 kts | 88° |
| 2026-05-06 20:06 | 43.75453 | -79.18282 | 10383 ft | 339 kts | 87° |
| 2026-05-06 20:06 | 43.75938 | -79.15026 | 10473 ft | 356 kts | 67° |
| 2026-05-06 20:06 | 43.77123 | -79.11947 | 10598 ft | 371 kts | 59° |
| 2026-05-06 20:07 | 43.78483 | -79.08802 | 10855 ft | 389 kts | 58° |
| 2026-05-06 20:07 | 43.79868 | -79.05631 | 11338 ft | 400 kts | 58° |
| 2026-05-06 20:07 | 43.81298 | -79.02333 | 11928 ft | 409 kts | 59° |
| 2026-05-06 20:07 | 43.82767 | -78.98898 | 12589 ft | 418 kts | 59° |
| 2026-05-06 20:08 | 43.84245 | -78.95403 | 13335 ft | 423 kts | 59° |
| 2026-05-06 20:08 | 43.85730 | -78.91862 | 14081 ft | 428 kts | 60° |
| 2026-05-06 20:08 | 43.87202 | -78.88322 | 14804 ft | 432 kts | 60° |
| 2026-05-06 20:08 | 43.88730 | -78.84629 | 15473 ft | 437 kts | 60° |
| 2026-05-06 20:09 | 43.90250 | -78.80946 | 16120 ft | 442 kts | 60° |
| 2026-05-06 20:09 | 43.91784 | -78.77218 | 16745 ft | 448 kts | 60° |
| 2026-05-06 20:09 | 43.93335 | -78.73448 | 17349 ft | 452 kts | 60° |
| 2026-05-06 20:09 | 43.94898 | -78.69641 | 17961 ft | 456 kts | 60° |
| 2026-05-06 20:10 | 43.96475 | -78.65799 | 18543 ft | 460 kts | 60° |
| 2026-05-06 20:10 | 43.98065 | -78.61921 | 19095 ft | 464 kts | 60° |
| 2026-05-06 20:10 | 43.99648 | -78.58052 | 19629 ft | 468 kts | 60° |
| 2026-05-06 20:10 | 44.01260 | -78.54107 | 20204 ft | 471 kts | 60° |
| 2026-05-06 20:11 | 44.02884 | -78.50130 | 20715 ft | 474 kts | 60° |
| 2026-05-06 20:11 | 44.04517 | -78.46126 | 21183 ft | 479 kts | 60° |
| 2026-05-06 20:11 | 44.06163 | -78.42079 | 21669 ft | 482 kts | 60° |
| 2026-05-06 20:11 | 44.07815 | -78.38006 | 22166 ft | 485 kts | 60° |
| 2026-05-06 20:12 | 44.09473 | -78.33919 | 22702 ft | 486 kts | 60° |
| 2026-05-06 20:12 | 44.11136 | -78.29814 | 23196 ft | 488 kts | 60° |
| 2026-05-06 20:12 | 44.12810 | -78.25677 | 23609 ft | 492 kts | 60° |
| 2026-05-06 20:12 | 44.14494 | -78.21508 | 24043 ft | 495 kts | 60° |
| 2026-05-06 20:13 | 44.16187 | -78.17314 | 24477 ft | 498 kts | 60° |
| 2026-05-06 20:13 | 44.17888 | -78.13092 | 24894 ft | 501 kts | 60° |
| 2026-05-06 20:13 | 44.19598 | -78.08842 | 25265 ft | 505 kts | 60° |
| 2026-05-06 20:13 | 44.21319 | -78.04558 | 25631 ft | 509 kts | 60° |
| 2026-05-06 20:14 | 44.23056 | -78.00232 | 26031 ft | 512 kts | 60° |
| 2026-05-06 20:14 | 44.24798 | -77.95885 | 26443 ft | 514 kts | 60° |
| 2026-05-06 20:14 | 44.26546 | -77.91513 | 26818 ft | 518 kts | 60° |
| 2026-05-06 20:14 | 44.28279 | -77.87166 | 27176 ft | 520 kts | 60° |
| 2026-05-06 20:15 | 44.30039 | -77.82747 | 27513 ft | 523 kts | 60° |
| 2026-05-06 20:15 | 44.31816 | -77.78288 | 27837 ft | 527 kts | 60° |
| 2026-05-06 20:15 | 44.33602 | -77.73798 | 28177 ft | 529 kts | 60° |
| 2026-05-06 20:15 | 44.35390 | -77.69291 | 28515 ft | 532 kts | 60° |
| 2026-05-06 20:16 | 44.37184 | -77.64759 | 28878 ft | 534 kts | 60° |
| 2026-05-06 20:16 | 44.38987 | -77.60196 | 29191 ft | 537 kts | 60° |
| 2026-05-06 20:16 | 44.40797 | -77.55616 | 29498 ft | 539 kts | 60° |
| 2026-05-06 20:16 | 44.42610 | -77.51014 | 29781 ft | 542 kts | 60° |
| 2026-05-06 20:17 | 44.44431 | -77.46382 | 30077 ft | 544 kts | 61° |
| 2026-05-06 20:17 | 44.46257 | -77.41725 | 30386 ft | 546 kts | 61° |
| 2026-05-06 20:17 | 44.48063 | -77.37121 | 30658 ft | 547 kts | 60° |
| 2026-05-06 20:17 | 44.49919 | -77.32382 | 30959 ft | 549 kts | 61° |
| 2026-05-06 20:18 | 44.51754 | -77.27685 | 31236 ft | 550 kts | 61° |
| 2026-05-06 20:18 | 44.53573 | -77.23034 | 31449 ft | 553 kts | 61° |
| 2026-05-06 20:18 | 44.55426 | -77.18280 | 31656 ft | 555 kts | 61° |
| 2026-05-06 20:18 | 44.57271 | -77.13533 | 31946 ft | 555 kts | 61° |
| 2026-05-06 20:19 | 44.59118 | -77.08780 | 32341 ft | 553 kts | 61° |
| 2026-05-06 20:19 | 44.60952 | -77.04041 | 32682 ft | 552 kts | 61° |
| 2026-05-06 20:19 | 44.62778 | -76.99311 | 33014 ft | 551 kts | 61° |
| 2026-05-06 20:19 | 44.64606 | -76.94575 | 33335 ft | 551 kts | 61° |
| 2026-05-06 20:20 | 44.66427 | -76.89853 | 33670 ft | 550 kts | 61° |
| 2026-05-06 20:20 | 44.68251 | -76.85116 | 33968 ft | 549 kts | 62° |
| 2026-05-06 20:20 | 44.70068 | -76.80386 | 34252 ft | 548 kts | 62° |
| 2026-05-06 20:20 | 44.71881 | -76.75660 | 34509 ft | 549 kts | 61° |
| 2026-05-06 20:21 | 44.73692 | -76.70934 | 34791 ft | 548 kts | 62° |
| 2026-05-06 20:21 | 44.75476 | -76.66271 | 35069 ft | 548 kts | 61° |
| 2026-05-06 20:21 | 44.77304 | -76.61491 | 35331 ft | 548 kts | 61° |
| 2026-05-06 20:21 | 44.79080 | -76.56830 | 35551 ft | 549 kts | 61° |
| 2026-05-06 20:22 | 44.80883 | -76.52081 | 35823 ft | 549 kts | 61° |
| 2026-05-06 20:22 | 44.82682 | -76.47337 | 36114 ft | 548 kts | 61° |
| 2026-05-06 20:22 | 44.83967 | -76.43947 | 36311 ft | 548 kts | 61° |
| 2026-05-06 20:23 | 44.85761 | -76.39208 | 36505 ft | 549 kts | 61° |
| 2026-05-06 20:23 | 44.87561 | -76.34449 | 36692 ft | 550 kts | 61° |
| 2026-05-06 20:23 | 44.89361 | -76.29684 | 36806 ft | 551 kts | 61° |
| 2026-05-06 20:23 | 44.91148 | -76.24903 | 36853 ft | 549 kts | 63° |
| 2026-05-06 20:24 | 44.94028 | -76.15091 | 36860 ft | 537 kts | 72° |
| 2026-05-06 20:24 | 44.96401 | -76.05096 | 36866 ft | 538 kts | 72° |
| 2026-05-06 20:25 | 44.98764 | -75.95109 | 36855 ft | 539 kts | 72° |
| 2026-05-06 20:25 | 45.01176 | -75.85083 | 36852 ft | 539 kts | 72° |
| 2026-05-06 20:26 | 45.03601 | -75.75034 | 36853 ft | 540 kts | 72° |
| 2026-05-06 20:26 | 45.06016 | -75.64983 | 36853 ft | 540 kts | 73° |
| 2026-05-06 20:27 | 45.08423 | -75.54917 | 36850 ft | 540 kts | 73° |
| 2026-05-06 20:27 | 45.10812 | -75.44849 | 36843 ft | 539 kts | 73° |
| 2026-05-06 20:28 | 45.13178 | -75.34855 | 36848 ft | 538 kts | 73° |
| 2026-05-06 20:28 | 45.15550 | -75.24789 | 36854 ft | 539 kts | 73° |
| 2026-05-06 20:29 | 45.17913 | -75.14714 | 36867 ft | 538 kts | 73° |
| 2026-05-06 20:29 | 45.19867 | -75.06339 | 36866 ft | 538 kts | 74° |
| 2026-05-06 20:30 | 45.23423 | -74.91222 | 36875 ft | 538 kts | 70° |
| 2026-05-06 20:31 | 45.26959 | -74.81847 | 36871 ft | 540 kts | 56° |
| 2026-05-06 20:31 | 45.31769 | -74.73670 | 36869 ft | 539 kts | 45° |
| 2026-05-06 20:32 | 45.37847 | -74.64769 | 36871 ft | 540 kts | 44° |
| 2026-05-06 20:32 | 45.42187 | -74.58352 | 36871 ft | 541 kts | 45° |
| 2026-05-06 20:33 | 45.47369 | -74.50570 | 36867 ft | 541 kts | 46° |
| 2026-05-06 20:33 | 45.52532 | -74.42751 | 36875 ft | 543 kts | 46° |
| 2026-05-06 20:34 | 45.57708 | -74.34895 | 36866 ft | 543 kts | 46° |
| 2026-05-06 20:34 | 45.62877 | -74.26995 | 36861 ft | 544 kts | 46° |
| 2026-05-06 20:35 | 45.68058 | -74.19071 | 36859 ft | 547 kts | 47° |
| 2026-05-06 20:35 | 45.73217 | -74.11170 | 36863 ft | 547 kts | 47° |
| 2026-05-06 20:36 | 45.78456 | -74.03128 | 36864 ft | 548 kts | 47° |
| 2026-05-06 20:36 | 45.83610 | -73.95184 | 36855 ft | 548 kts | 47° |
| 2026-05-06 20:37 | 45.88797 | -73.87162 | 36866 ft | 548 kts | 47° |
| 2026-05-06 20:37 | 45.93975 | -73.79146 | 36867 ft | 547 kts | 47° |
| 2026-05-06 20:38 | 45.99124 | -73.71129 | 36859 ft | 544 kts | 47° |
| 2026-05-06 20:38 | 46.04253 | -73.63139 | 36855 ft | 543 kts | 47° |
| 2026-05-06 20:39 | 46.09373 | -73.55130 | 36868 ft | 542 kts | 47° |
| 2026-05-06 20:39 | 46.14476 | -73.47105 | 36867 ft | 544 kts | 47° |
| 2026-05-06 20:40 | 46.19601 | -73.39048 | 36851 ft | 546 kts | 48° |
| 2026-05-06 20:40 | 46.24709 | -73.31003 | 36858 ft | 548 kts | 47° |
| 2026-05-06 20:41 | 46.29881 | -73.22923 | 36865 ft | 546 kts | 47° |
| 2026-05-06 20:41 | 46.35043 | -73.14801 | 36864 ft | 548 kts | 47° |
| 2026-05-06 20:42 | 46.40204 | -73.06684 | 36843 ft | 548 kts | 47° |
| 2026-05-06 20:42 | 46.45357 | -72.98520 | 36847 ft | 548 kts | 48° |
| 2026-05-06 20:43 | 46.50501 | -72.90350 | 36853 ft | 549 kts | 48° |
| 2026-05-06 20:43 | 46.55633 | -72.82160 | 36853 ft | 548 kts | 48° |
| 2026-05-06 20:44 | 46.60763 | -72.73961 | 36840 ft | 548 kts | 48° |
| 2026-05-06 20:44 | 46.65855 | -72.65794 | 36855 ft | 548 kts | 48° |
| 2026-05-06 20:45 | 46.70967 | -72.57560 | 36851 ft | 547 kts | 47° |
| 2026-05-06 20:45 | 46.76080 | -72.49333 | 36851 ft | 548 kts | 48° |
| 2026-05-06 20:46 | 46.81189 | -72.41091 | 36848 ft | 548 kts | 48° |
| 2026-05-06 20:46 | 46.86281 | -72.32821 | 36852 ft | 548 kts | 48° |
| 2026-05-06 20:47 | 46.91376 | -72.24527 | 36854 ft | 549 kts | 48° |
| 2026-05-06 20:47 | 46.96475 | -72.16208 | 36840 ft | 549 kts | 48° |
| 2026-05-06 20:48 | 47.01569 | -72.07858 | 36838 ft | 549 kts | 48° |
| 2026-05-06 20:48 | 47.06631 | -71.99547 | 36837 ft | 550 kts | 48° |
| 2026-05-06 20:49 | 47.11725 | -71.91145 | 36831 ft | 550 kts | 48° |
| 2026-05-06 20:49 | 47.16813 | -71.82740 | 36833 ft | 550 kts | 48° |
| 2026-05-06 20:50 | 47.21903 | -71.74304 | 36840 ft | 550 kts | 48° |
| 2026-05-06 20:50 | 47.26968 | -71.65886 | 36816 ft | 548 kts | 49° |
| 2026-05-06 20:51 | 47.32018 | -71.57452 | 36834 ft | 549 kts | 49° |
| 2026-05-06 20:51 | 47.37076 | -71.48996 | 36817 ft | 550 kts | 49° |
| 2026-05-06 20:52 | 47.42126 | -71.40541 | 36823 ft | 550 kts | 49° |
| 2026-05-06 20:52 | 47.47204 | -71.31963 | 36817 ft | 558 kts | 49° |
| 2026-05-06 20:53 | 47.52346 | -71.23276 | 36831 ft | 565 kts | 49° |
| 2026-05-06 20:53 | 47.57513 | -71.14530 | 36812 ft | 571 kts | 49° |
| 2026-05-06 20:54 | 47.62751 | -71.05637 | 36817 ft | 574 kts | 49° |
| 2026-05-06 20:54 | 47.68009 | -70.96644 | 36807 ft | 578 kts | 49° |
| 2026-05-06 20:55 | 47.73296 | -70.87602 | 36814 ft | 580 kts | 49° |
| 2026-05-06 20:55 | 47.78582 | -70.78524 | 36808 ft | 581 kts | 49° |
| 2026-05-06 20:56 | 47.83858 | -70.69424 | 36815 ft | 580 kts | 49° |
| 2026-05-06 20:56 | 47.89090 | -70.60370 | 36793 ft | 573 kts | 49° |
| 2026-05-06 20:57 | 47.94265 | -70.51393 | 36803 ft | 570 kts | 49° |
| 2026-05-06 20:57 | 47.99399 | -70.42448 | 36797 ft | 570 kts | 49° |
| 2026-05-06 20:58 | 48.04560 | -70.33431 | 36805 ft | 571 kts | 49° |
| 2026-05-06 20:58 | 48.09711 | -70.24400 | 36501 ft | 569 kts | 49° |
| 2026-05-06 20:58 | 48.12281 | -70.19893 | 36097 ft | 570 kts | 49° |
| 2026-05-06 20:59 | 48.14861 | -70.15349 | 35468 ft | 576 kts | 50° |
| 2026-05-06 20:59 | 48.17474 | -70.10742 | 35033 ft | 583 kts | 50° |
| 2026-05-06 20:59 | 48.20108 | -70.06084 | 34839 ft | 589 kts | 50° |
| 2026-05-06 21:00 | 48.25418 | -69.96672 | 34808 ft | 590 kts | 50° |
| 2026-05-06 21:00 | 48.30702 | -69.87281 | 34808 ft | 587 kts | 50° |
| 2026-05-06 21:01 | 48.35960 | -69.77906 | 34797 ft | 585 kts | 50° |
| 2026-05-06 21:01 | 48.41166 | -69.68586 | 34798 ft | 584 kts | 50° |
| 2026-05-06 21:02 | 48.46385 | -69.59204 | 34807 ft | 585 kts | 50° |
| 2026-05-06 21:02 | 48.51626 | -69.49757 | 34810 ft | 587 kts | 50° |
| 2026-05-06 21:03 | 48.56863 | -69.40283 | 34817 ft | 589 kts | 50° |
| 2026-05-06 21:03 | 48.62172 | -69.30805 | 34817 ft | 592 kts | 50° |
| 2026-05-06 21:04 | 48.67531 | -69.21301 | 34835 ft | 594 kts | 49° |
| 2026-05-06 21:04 | 48.72890 | -69.11748 | 34832 ft | 596 kts | 50° |
| 2026-05-06 21:05 | 48.78206 | -69.02192 | 34835 ft | 598 kts | 50° |
| 2026-05-06 21:05 | 48.83565 | -68.92525 | 34834 ft | 599 kts | 50° |
| 2026-05-06 21:06 | 48.88921 | -68.82830 | 34832 ft | 598 kts | 50° |
| 2026-05-06 21:06 | 48.94262 | -68.73129 | 34831 ft | 598 kts | 50° |
| 2026-05-06 21:07 | 48.99595 | -68.63412 | 34833 ft | 598 kts | 50° |
| 2026-05-06 21:07 | 49.04864 | -68.53625 | 34842 ft | 597 kts | 52° |
| 2026-05-06 21:08 | 49.10084 | -68.43808 | 34848 ft | 594 kts | 53° |
| 2026-05-06 21:08 | 49.15250 | -68.34066 | 34835 ft | 593 kts | 53° |
| 2026-05-06 21:09 | 49.20445 | -68.24251 | 34841 ft | 593 kts | 53° |
| 2026-05-06 21:09 | 49.25632 | -68.14427 | 34842 ft | 594 kts | 53° |
| 2026-05-06 21:10 | 49.30842 | -68.04533 | 34844 ft | 595 kts | 53° |
| 2026-05-06 21:10 | 49.36011 | -67.94682 | 34842 ft | 597 kts | 53° |
| 2026-05-06 21:11 | 49.41207 | -67.84722 | 34835 ft | 597 kts | 53° |
| 2026-05-06 21:11 | 49.46395 | -67.74743 | 34848 ft | 598 kts | 53° |
| 2026-05-06 21:12 | 49.51593 | -67.64653 | 34842 ft | 603 kts | 53° |
| 2026-05-06 21:12 | 49.56807 | -67.54547 | 34842 ft | 602 kts | 53° |
| 2026-05-06 21:13 | 49.62022 | -67.44464 | 34852 ft | 600 kts | 53° |
| 2026-05-06 21:13 | 49.67197 | -67.34392 | 34853 ft | 598 kts | 53° |
| 2026-05-06 21:14 | 49.72347 | -67.24297 | 34854 ft | 597 kts | 53° |
| 2026-05-06 21:14 | 49.77468 | -67.14212 | 34850 ft | 595 kts | 53° |
| 2026-05-06 21:15 | 49.82539 | -67.04192 | 34851 ft | 594 kts | 53° |
| 2026-05-06 21:15 | 49.87631 | -66.94101 | 34852 ft | 593 kts | 53° |
| 2026-05-06 21:16 | 49.92706 | -66.84007 | 34859 ft | 593 kts | 53° |
| 2026-05-06 21:16 | 49.97769 | -66.73897 | 34853 ft | 593 kts | 53° |
| 2026-05-06 21:17 | 50.01969 | -66.65479 | 34856 ft | 592 kts | 53° |
| 2026-05-06 21:17 | 50.07020 | -66.55316 | 34858 ft | 593 kts | 53° |
| 2026-05-06 21:18 | 50.12889 | -66.43461 | 34867 ft | 595 kts | 53° |
| 2026-05-06 21:18 | 50.17934 | -66.33239 | 34859 ft | 594 kts | 53° |
| 2026-05-06 21:19 | 50.22140 | -66.24672 | 34867 ft | 593 kts | 54° |
| 2026-05-06 21:19 | 50.27153 | -66.14431 | 34857 ft | 593 kts | 54° |
| 2026-05-06 21:20 | 50.32112 | -66.04253 | 34861 ft | 592 kts | 54° |
| 2026-05-06 21:20 | 50.37101 | -65.93984 | 34860 ft | 593 kts | 54° |
| 2026-05-06 21:21 | 50.42087 | -65.83684 | 34867 ft | 593 kts | 54° |
| 2026-05-06 21:21 | 50.47060 | -65.73369 | 34860 ft | 593 kts | 54° |
| 2026-05-06 21:22 | 50.52026 | -65.63016 | 34859 ft | 594 kts | 54° |
| 2026-05-06 21:22 | 50.56994 | -65.52623 | 34859 ft | 594 kts | 54° |
| 2026-05-06 21:23 | 50.61951 | -65.42218 | 34862 ft | 595 kts | 54° |
| 2026-05-06 21:23 | 50.66909 | -65.31761 | 34854 ft | 595 kts | 54° |
| 2026-05-06 21:24 | 50.71861 | -65.21279 | 34846 ft | 595 kts | 54° |
| 2026-05-06 21:24 | 50.76764 | -65.10864 | 34858 ft | 594 kts | 54° |
| 2026-05-06 21:25 | 50.81683 | -65.00361 | 34858 ft | 594 kts | 54° |
| 2026-05-06 21:25 | 50.86601 | -64.89825 | 34851 ft | 594 kts | 54° |
| 2026-05-06 21:26 | 50.91500 | -64.79290 | 34853 ft | 593 kts | 54° |
| 2026-05-06 21:26 | 50.96378 | -64.68751 | 34847 ft | 593 kts | 54° |
| 2026-05-06 21:27 | 51.01247 | -64.58208 | 34849 ft | 592 kts | 54° |
| 2026-05-06 21:27 | 51.06100 | -64.47641 | 34845 ft | 592 kts | 54° |
| 2026-05-06 21:28 | 51.10938 | -64.37052 | 34860 ft | 591 kts | 55° |
| 2026-05-06 21:28 | 51.15771 | -64.26441 | 34845 ft | 592 kts | 55° |
| 2026-05-06 21:29 | 51.20595 | -64.15808 | 34855 ft | 592 kts | 55° |
| 2026-05-06 21:29 | 51.25424 | -64.05127 | 34851 ft | 593 kts | 55° |
| 2026-05-06 21:30 | 51.30211 | -63.94495 | 34867 ft | 592 kts | 55° |
| 2026-05-06 21:30 | 51.35014 | -63.83774 | 34859 ft | 592 kts | 55° |
| 2026-05-06 21:31 | 51.39801 | -63.73048 | 34854 ft | 592 kts | 55° |
| 2026-05-06 21:31 | 51.44572 | -63.62303 | 34852 ft | 591 kts | 55° |
| 2026-05-06 21:32 | 51.49328 | -63.51559 | 34858 ft | 590 kts | 55° |
| 2026-05-06 21:32 | 51.56408 | -63.35489 | 34864 ft | 590 kts | 56° |
| 2026-05-06 21:33 | 51.61134 | -63.24699 | 34860 ft | 590 kts | 55° |
| 2026-05-06 21:33 | 51.65854 | -63.13883 | 34863 ft | 590 kts | 55° |
| 2026-05-06 21:34 | 51.70559 | -63.03046 | 34856 ft | 590 kts | 56° |
| 2026-05-06 21:34 | 51.75254 | -62.92195 | 34850 ft | 589 kts | 56° |
| 2026-05-06 21:35 | 51.79923 | -62.81354 | 34854 ft | 587 kts | 56° |
| 2026-05-06 21:35 | 51.84571 | -62.70521 | 34850 ft | 586 kts | 56° |
| 2026-05-06 21:36 | 51.89200 | -62.59671 | 34849 ft | 584 kts | 56° |
| 2026-05-06 21:36 | 51.93820 | -62.48822 | 34842 ft | 584 kts | 56° |
| 2026-05-06 21:37 | 51.98378 | -62.37993 | 34850 ft | 577 kts | 57° |
| 2026-05-06 21:37 | 52.02909 | -62.27327 | 34854 ft | 573 kts | 59° |
| 2026-05-06 21:38 | 52.07308 | -62.16470 | 34847 ft | 581 kts | 56° |
| 2026-05-06 21:38 | 52.11899 | -62.05641 | 34824 ft | 588 kts | 56° |
| 2026-05-06 21:39 | 52.16606 | -61.94756 | 34852 ft | 586 kts | 56° |
| 2026-05-06 21:39 | 52.21121 | -61.83631 | 34837 ft | 585 kts | 58° |
| 2026-05-06 21:40 | 52.25782 | -61.72748 | 34812 ft | 583 kts | 55° |
| 2026-05-06 21:40 | 52.30257 | -61.61731 | 34798 ft | 575 kts | 61° |
| 2026-05-06 21:41 | 52.34672 | -61.50957 | 34903 ft | 575 kts | 54° |
| 2026-05-06 21:41 | 52.39160 | -61.39939 | 34868 ft | 582 kts | 56° |
| 2026-05-06 21:42 | 52.43641 | -61.28678 | 34806 ft | 592 kts | 56° |
| 2026-05-06 21:42 | 52.48129 | -61.17471 | 34884 ft | 586 kts | 57° |
| 2026-05-06 21:43 | 52.52684 | -61.06437 | 34857 ft | 580 kts | 55° |
| 2026-05-06 21:43 | 52.57160 | -60.95366 | 34792 ft | 582 kts | 58° |
| 2026-05-06 21:44 | 52.59265 | -60.89773 | 34791 ft | 571 kts | 57° |
| 2026-05-06 21:44 | 52.61428 | -60.84299 | 34842 ft | 573 kts | 56° |
| 2026-05-06 21:44 | 52.65882 | -60.73374 | 34830 ft | 579 kts | 57° |
| 2026-05-06 21:45 | 52.70262 | -60.62244 | 34861 ft | 586 kts | 57° |
| 2026-05-06 21:45 | 52.74683 | -60.51008 | 34856 ft | 593 kts | 56° |
| 2026-05-06 21:46 | 52.78959 | -60.39508 | 34802 ft | 583 kts | 57° |
| 2026-05-06 21:46 | 52.83318 | -60.28322 | 34811 ft | 581 kts | 55° |
| 2026-05-06 21:47 | 52.87823 | -60.17097 | 34788 ft | 588 kts | 56° |
| 2026-05-06 21:47 | 52.92291 | -60.05693 | 34830 ft | 592 kts | 56° |
| 2026-05-06 21:48 | 52.96702 | -59.94218 | 34814 ft | 591 kts | 56° |
| 2026-05-06 21:48 | 53.01067 | -59.82780 | 34809 ft | 582 kts | 56° |
| 2026-05-06 21:49 | 53.05405 | -59.71404 | 34814 ft | 584 kts | 56° |
| 2026-05-06 21:49 | 53.09728 | -59.60036 | 34832 ft | 585 kts | 57° |
| 2026-05-06 21:50 | 53.14067 | -59.48562 | 34813 ft | 587 kts | 57° |
| 2026-05-06 21:50 | 53.18412 | -59.37004 | 34834 ft | 588 kts | 57° |
| 2026-05-06 21:51 | 53.22742 | -59.25439 | 34807 ft | 588 kts | 57° |
| 2026-05-06 21:51 | 53.27074 | -59.13824 | 34834 ft | 587 kts | 57° |
| 2026-05-06 21:52 | 53.31356 | -59.02291 | 34840 ft | 586 kts | 57° |
| 2026-05-06 21:52 | 53.35645 | -58.90690 | 34841 ft | 586 kts | 57° |
| 2026-05-06 21:53 | 53.39909 | -58.79081 | 34832 ft | 585 kts | 57° |
| 2026-05-06 21:53 | 53.44168 | -58.67442 | 34835 ft | 584 kts | 57° |
| 2026-05-06 21:54 | 53.48412 | -58.55800 | 34846 ft | 584 kts | 57° |
| 2026-05-06 21:54 | 53.52637 | -58.44153 | 34812 ft | 584 kts | 57° |
| 2026-05-06 21:55 | 53.56853 | -58.32469 | 34829 ft | 584 kts | 58° |
| 2026-05-06 21:55 | 53.61035 | -58.20841 | 34840 ft | 584 kts | 58° |
| 2026-05-06 21:56 | 53.65228 | -58.09110 | 34832 ft | 585 kts | 58° |
| 2026-05-06 21:56 | 53.69416 | -57.97339 | 34841 ft | 586 kts | 58° |
| 2026-05-06 21:57 | 53.73598 | -57.85528 | 34836 ft | 587 kts | 58° |
| 2026-05-06 21:57 | 53.77775 | -57.73678 | 34833 ft | 586 kts | 58° |
| 2026-05-06 21:58 | 53.81940 | -57.61809 | 34836 ft | 586 kts | 58° |
| 2026-05-06 21:58 | 53.86092 | -57.49924 | 34836 ft | 586 kts | 58° |
| 2026-05-06 21:59 | 53.90213 | -57.38046 | 34839 ft | 584 kts | 58° |
| 2026-05-06 21:59 | 53.94325 | -57.26173 | 34836 ft | 582 kts | 58° |
| 2026-05-06 22:00 | 53.98404 | -57.14309 | 34844 ft | 581 kts | 59° |
| 2026-05-06 22:00 | 54.02466 | -57.02450 | 34833 ft | 579 kts | 59° |
| 2026-05-06 22:01 | 54.06450 | -56.90524 | 34840 ft | 578 kts | 60° |
| 2026-05-06 22:01 | 54.10286 | -56.78560 | 34845 ft | 578 kts | 61° |
| 2026-05-06 22:02 | 54.14109 | -56.66535 | 34841 ft | 577 kts | 61° |
| 2026-05-06 22:02 | 54.17946 | -56.54496 | 34843 ft | 576 kts | 61° |
| 2026-05-06 22:03 | 54.21770 | -56.42470 | 34843 ft | 575 kts | 61° |
| 2026-05-06 22:03 | 54.25551 | -56.30534 | 34843 ft | 574 kts | 61° |
| 2026-05-06 22:04 | 54.29333 | -56.18528 | 34841 ft | 573 kts | 61° |
| 2026-05-06 22:04 | 54.32463 | -56.08540 | 34842 ft | 572 kts | 61° |
| 2026-05-06 22:05 | 54.36219 | -55.96499 | 34845 ft | 572 kts | 62° |
| 2026-05-06 22:05 | 54.39962 | -55.84445 | 34843 ft | 572 kts | 62° |
| 2026-05-06 22:06 | 54.43682 | -55.72405 | 34834 ft | 570 kts | 62° |
| 2026-05-06 22:06 | 54.47394 | -55.60331 | 34832 ft | 570 kts | 62° |
| 2026-05-06 22:07 | 54.51066 | -55.48328 | 34833 ft | 571 kts | 62° |
| 2026-05-06 22:07 | 54.54749 | -55.36211 | 34836 ft | 572 kts | 62° |
| 2026-05-06 22:08 | 54.58431 | -55.24044 | 34834 ft | 573 kts | 62° |
| 2026-05-06 22:08 | 54.62109 | -55.11835 | 34836 ft | 573 kts | 62° |
| 2026-05-06 22:09 | 54.65782 | -54.99589 | 34835 ft | 575 kts | 62° |
| 2026-05-06 22:09 | 54.69441 | -54.87309 | 34845 ft | 574 kts | 62° |
| 2026-05-06 22:10 | 54.73086 | -54.75013 | 34842 ft | 574 kts | 62° |
| 2026-05-06 22:10 | 54.76718 | -54.62701 | 34842 ft | 573 kts | 62° |
| 2026-05-06 22:11 | 54.80323 | -54.50409 | 34841 ft | 572 kts | 62° |
| 2026-05-06 22:11 | 54.83893 | -54.38183 | 34840 ft | 571 kts | 63° |
| 2026-05-06 22:12 | 54.87465 | -54.25883 | 34841 ft | 570 kts | 63° |
| 2026-05-06 22:12 | 54.91019 | -54.13573 | 34844 ft | 570 kts | 63° |
| 2026-05-06 22:13 | 54.94554 | -54.01262 | 34889 ft | 569 kts | 63° |
| 2026-05-06 22:13 | 54.98083 | -53.88919 | 34903 ft | 568 kts | 63° |
| 2026-05-06 22:14 | 55.01587 | -53.76597 | 34900 ft | 567 kts | 63° |
| 2026-05-06 22:14 | 55.05075 | -53.64277 | 34898 ft | 566 kts | 63° |
| 2026-05-06 22:15 | 55.08524 | -53.52021 | 34898 ft | 566 kts | 63° |
| 2026-05-06 22:15 | 55.11979 | -53.39678 | 34896 ft | 566 kts | 63° |
| 2026-05-06 22:16 | 55.15424 | -53.27311 | 34902 ft | 565 kts | 63° |
| 2026-05-06 22:16 | 55.18847 | -53.14924 | 34907 ft | 565 kts | 63° |
| 2026-05-06 22:17 | 55.22253 | -53.02545 | 34909 ft | 564 kts | 63° |
| 2026-05-06 22:17 | 55.25644 | -52.90157 | 34938 ft | 563 kts | 63° |
| 2026-05-06 22:18 | 55.29025 | -52.77764 | 34945 ft | 563 kts | 63° |
| 2026-05-06 22:18 | 55.32391 | -52.65343 | 34944 ft | 563 kts | 64° |
| 2026-05-06 22:19 | 55.35722 | -52.52972 | 34916 ft | 564 kts | 64° |
| 2026-05-06 22:19 | 55.39067 | -52.40495 | 34915 ft | 563 kts | 64° |
| 2026-05-06 22:20 | 55.42392 | -52.28008 | 34921 ft | 563 kts | 64° |
| 2026-05-06 22:20 | 55.45705 | -52.15500 | 34917 ft | 563 kts | 64° |
| 2026-05-06 22:21 | 55.49004 | -52.02980 | 34914 ft | 563 kts | 64° |
| 2026-05-06 22:21 | 55.52294 | -51.90433 | 34955 ft | 562 kts | 64° |
| 2026-05-06 22:22 | 55.55561 | -51.77899 | 34952 ft | 562 kts | 64° |
| 2026-05-06 22:22 | 55.58822 | -51.65339 | 34951 ft | 561 kts | 64° |
| 2026-05-06 22:23 | 55.62035 | -51.52873 | 35013 ft | 560 kts | 64° |
| 2026-05-06 22:23 | 55.65250 | -51.40314 | 35058 ft | 559 kts | 64° |
| 2026-05-06 22:24 | 55.68451 | -51.27769 | 35063 ft | 559 kts | 64° |
| 2026-05-06 22:24 | 55.71636 | -51.15204 | 35079 ft | 557 kts | 64° |
| 2026-05-06 22:25 | 55.74797 | -51.02655 | 35075 ft | 556 kts | 64° |
| 2026-05-06 22:25 | 55.77944 | -50.90117 | 35070 ft | 555 kts | 64° |
| 2026-05-06 22:26 | 55.81041 | -50.77663 | 35077 ft | 554 kts | 64° |
| 2026-05-06 22:26 | 55.84146 | -50.65127 | 35082 ft | 552 kts | 64° |
| 2026-05-06 22:27 | 55.87228 | -50.52628 | 35090 ft | 550 kts | 64° |
| 2026-05-06 22:27 | 55.90290 | -50.40123 | 35076 ft | 549 kts | 64° |
| 2026-05-06 22:28 | 55.93309 | -50.27725 | 35090 ft | 548 kts | 64° |
| 2026-05-06 22:28 | 55.96338 | -50.15221 | 35098 ft | 548 kts | 64° |
| 2026-05-06 22:29 | 55.99335 | -50.02724 | 35095 ft | 547 kts | 66° |
| 2026-05-06 22:29 | 56.01620 | -49.89751 | 35109 ft | 548 kts | 75° |
| 2026-05-06 22:30 | 56.03444 | -49.76490 | 35085 ft | 549 kts | 76° |
| 2026-05-06 22:30 | 56.05238 | -49.63215 | 35102 ft | 550 kts | 75° |
| 2026-05-06 22:31 | 56.07059 | -49.50005 | 35103 ft | 550 kts | 75° |
| 2026-05-06 22:31 | 56.08900 | -49.36725 | 35099 ft | 550 kts | 75° |
| 2026-05-06 22:32 | 56.10734 | -49.23406 | 35101 ft | 550 kts | 75° |
| 2026-05-06 22:32 | 56.12552 | -49.10098 | 35107 ft | 550 kts | 75° |
| 2026-05-06 22:33 | 56.14352 | -48.96772 | 35113 ft | 550 kts | 75° |
| 2026-05-06 22:33 | 56.16138 | -48.83426 | 35113 ft | 548 kts | 75° |
| 2026-05-06 22:34 | 56.17886 | -48.70201 | 35108 ft | 548 kts | 75° |
| 2026-05-06 22:34 | 56.19636 | -48.56888 | 35119 ft | 546 kts | 75° |
| 2026-05-06 22:35 | 56.21364 | -48.43634 | 35120 ft | 544 kts | 75° |
| 2026-05-06 22:35 | 56.23071 | -48.30402 | 35118 ft | 542 kts | 75° |
| 2026-05-06 22:36 | 56.24758 | -48.17197 | 35118 ft | 541 kts | 75° |
| 2026-05-06 22:36 | 56.26424 | -48.04023 | 35122 ft | 539 kts | 75° |
| 2026-05-06 22:37 | 56.28064 | -47.90948 | 35134 ft | 539 kts | 75° |
| 2026-05-06 22:37 | 56.29704 | -47.77784 | 35128 ft | 539 kts | 75° |
| 2026-05-06 22:38 | 56.31328 | -47.64614 | 35128 ft | 538 kts | 75° |
| 2026-05-06 22:38 | 56.32934 | -47.51426 | 35129 ft | 538 kts | 75° |
| 2026-05-06 22:39 | 56.34528 | -47.38242 | 35131 ft | 537 kts | 75° |
| 2026-05-06 22:39 | 56.36097 | -47.25097 | 35144 ft | 536 kts | 75° |
| 2026-05-06 22:40 | 56.37661 | -47.11941 | 35139 ft | 536 kts | 75° |
| 2026-05-06 22:40 | 56.39201 | -46.98823 | 35133 ft | 534 kts | 76° |
| 2026-05-06 22:41 | 56.41470 | -46.79212 | 35139 ft | 533 kts | 76° |
| 2026-05-06 22:42 | 56.42972 | -46.66117 | 35144 ft | 531 kts | 76° |
| 2026-05-06 22:42 | 56.44455 | -46.53050 | 35147 ft | 530 kts | 76° |
| 2026-05-06 22:43 | 56.45917 | -46.39989 | 35149 ft | 528 kts | 76° |
| 2026-05-06 22:43 | 56.47353 | -46.27050 | 35147 ft | 527 kts | 76° |
| 2026-05-06 22:44 | 56.48784 | -46.14072 | 35141 ft | 526 kts | 76° |
| 2026-05-06 22:44 | 56.50200 | -46.01073 | 35148 ft | 525 kts | 76° |
| 2026-05-06 22:45 | 56.51594 | -45.88137 | 35152 ft | 523 kts | 76° |
| 2026-05-06 22:45 | 56.52972 | -45.75222 | 35149 ft | 522 kts | 76° |
| 2026-05-06 22:46 | 56.54323 | -45.62358 | 35159 ft | 521 kts | 76° |
| 2026-05-06 22:46 | 56.55672 | -45.49455 | 35156 ft | 521 kts | 76° |
| 2026-05-06 22:47 | 56.57004 | -45.36555 | 35155 ft | 520 kts | 76° |
| 2026-05-06 22:47 | 56.58320 | -45.23669 | 35189 ft | 519 kts | 76° |
| 2026-05-06 22:48 | 56.59622 | -45.10795 | 35196 ft | 519 kts | 76° |
| 2026-05-06 22:48 | 56.60910 | -44.97909 | 35203 ft | 518 kts | 76° |
| 2026-05-06 22:49 | 56.62174 | -44.85114 | 35206 ft | 517 kts | 76° |
| 2026-05-06 22:49 | 56.63427 | -44.72273 | 35195 ft | 515 kts | 76° |
| 2026-05-06 22:50 | 56.64660 | -44.59469 | 35206 ft | 513 kts | 76° |
| 2026-05-06 22:50 | 56.65889 | -44.46670 | 35198 ft | 513 kts | 76° |
| 2026-05-06 22:51 | 56.67094 | -44.33901 | 35204 ft | 512 kts | 76° |
| 2026-05-06 22:51 | 56.68282 | -44.21227 | 35201 ft | 510 kts | 76° |
| 2026-05-06 22:52 | 56.69454 | -44.08522 | 35265 ft | 508 kts | 76° |
| 2026-05-06 22:52 | 56.70619 | -43.95830 | 35262 ft | 507 kts | 76° |
| 2026-05-06 22:53 | 56.71572 | -43.85265 | 35279 ft | 508 kts | 76° |
| 2026-05-06 22:53 | 56.72706 | -43.72567 | 35263 ft | 508 kts | 76° |
| 2026-05-06 22:54 | 56.73820 | -43.59860 | 35269 ft | 509 kts | 77° |
| 2026-05-06 22:54 | 56.74934 | -43.47077 | 35274 ft | 511 kts | 77° |
| 2026-05-06 22:55 | 56.76037 | -43.34258 | 35261 ft | 513 kts | 77° |
| 2026-05-06 22:55 | 56.77135 | -43.21385 | 35275 ft | 513 kts | 77° |
| 2026-05-06 22:56 | 56.78213 | -43.08574 | 35263 ft | 514 kts | 77° |
| 2026-05-06 22:56 | 56.79281 | -42.95694 | 35271 ft | 514 kts | 77° |
| 2026-05-06 22:57 | 56.80334 | -42.82788 | 35263 ft | 513 kts | 78° |
| 2026-05-06 22:57 | 56.81374 | -42.69894 | 35264 ft | 513 kts | 78° |
| 2026-05-06 22:58 | 56.82400 | -42.56986 | 35266 ft | 513 kts | 78° |
| 2026-05-06 22:58 | 56.83408 | -42.44165 | 35268 ft | 513 kts | 78° |
| 2026-05-06 22:59 | 56.84407 | -42.31285 | 35263 ft | 512 kts | 78° |
| 2026-05-06 22:59 | 56.85390 | -42.18388 | 35273 ft | 512 kts | 78° |
| 2026-05-06 23:00 | 56.86362 | -42.05483 | 35264 ft | 513 kts | 78° |
| 2026-05-06 23:00 | 56.87319 | -41.92575 | 35268 ft | 513 kts | 78° |
| 2026-05-06 23:01 | 56.88268 | -41.79653 | 35264 ft | 512 kts | 78° |
| 2026-05-06 23:01 | 56.89205 | -41.66721 | 35258 ft | 513 kts | 78° |
| 2026-05-06 23:02 | 56.90125 | -41.53788 | 35270 ft | 513 kts | 78° |
| 2026-05-06 23:02 | 56.91024 | -41.40907 | 35270 ft | 513 kts | 78° |
| 2026-05-06 23:03 | 56.91919 | -41.27922 | 35271 ft | 513 kts | 78° |
| 2026-05-06 23:03 | 56.92801 | -41.14956 | 35266 ft | 513 kts | 78° |
| 2026-05-06 23:04 | 56.93668 | -41.01975 | 35272 ft | 514 kts | 78° |
| 2026-05-06 23:04 | 56.94522 | -40.88966 | 35272 ft | 513 kts | 79° |
| 2026-05-06 23:05 | 56.95355 | -40.76052 | 35274 ft | 514 kts | 78° |
| 2026-05-06 23:05 | 56.96187 | -40.63032 | 35281 ft | 514 kts | 79° |
| 2026-05-06 23:06 | 56.97003 | -40.49980 | 35274 ft | 515 kts | 79° |
| 2026-05-06 23:06 | 56.97807 | -40.36917 | 35273 ft | 515 kts | 79° |
| 2026-05-06 23:07 | 56.98594 | -40.23848 | 35273 ft | 516 kts | 79° |
| 2026-05-06 23:07 | 56.99374 | -40.10754 | 35273 ft | 516 kts | 79° |
| 2026-05-06 23:08 | 57.00274 | -39.97810 | 35285 ft | 512 kts | 74° |
| 2026-05-06 23:08 | 57.01998 | -39.85200 | 35291 ft | 509 kts | 70° |
| 2026-05-06 23:09 | 57.03840 | -39.72665 | 35275 ft | 509 kts | 70° |
| 2026-05-06 23:09 | 57.05644 | -39.60087 | 35278 ft | 508 kts | 70° |
| 2026-05-06 23:10 | 57.07402 | -39.47497 | 35286 ft | 509 kts | 70° |
| 2026-05-06 23:10 | 57.09140 | -39.34879 | 35275 ft | 509 kts | 71° |
| 2026-05-06 23:11 | 57.10865 | -39.22231 | 35274 ft | 510 kts | 71° |
| 2026-05-06 23:11 | 57.12580 | -39.09566 | 35270 ft | 510 kts | 71° |
| 2026-05-06 23:12 | 57.14277 | -38.96980 | 35281 ft | 510 kts | 71° |
| 2026-05-06 23:12 | 57.15967 | -38.84295 | 35278 ft | 510 kts | 71° |
| 2026-05-06 23:13 | 57.17644 | -38.71614 | 35277 ft | 509 kts | 71° |
| 2026-05-06 23:13 | 57.19311 | -38.58902 | 35279 ft | 510 kts | 71° |
| 2026-05-06 23:14 | 57.20968 | -38.46179 | 35271 ft | 510 kts | 71° |
| 2026-05-06 23:14 | 57.22602 | -38.33517 | 35290 ft | 510 kts | 71° |
| 2026-05-06 23:15 | 57.24234 | -38.20758 | 35287 ft | 510 kts | 72° |
| 2026-05-06 23:15 | 57.25852 | -38.07979 | 35286 ft | 511 kts | 72° |
| 2026-05-06 23:16 | 57.27456 | -37.95192 | 35293 ft | 512 kts | 72° |
| 2026-05-06 23:16 | 57.29051 | -37.82351 | 35286 ft | 512 kts | 72° |
| 2026-05-06 23:17 | 57.30636 | -37.69497 | 35290 ft | 513 kts | 72° |
| 2026-05-06 23:17 | 57.32208 | -37.56614 | 35283 ft | 513 kts | 72° |
| 2026-05-06 23:18 | 57.33770 | -37.43723 | 35282 ft | 514 kts | 72° |
| 2026-05-06 23:18 | 57.35320 | -37.30793 | 35283 ft | 514 kts | 72° |
| 2026-05-06 23:19 | 57.36855 | -37.17881 | 35288 ft | 513 kts | 72° |
| 2026-05-06 23:19 | 57.38377 | -37.04948 | 35292 ft | 513 kts | 73° |
| 2026-05-06 23:20 | 57.39872 | -36.92113 | 35309 ft | 513 kts | 73° |
| 2026-05-06 23:20 | 57.41364 | -36.79176 | 35315 ft | 513 kts | 73° |
| 2026-05-06 23:21 | 57.42847 | -36.66216 | 35312 ft | 513 kts | 73° |
| 2026-05-06 23:21 | 57.44311 | -36.53258 | 35314 ft | 513 kts | 73° |
| 2026-05-06 23:22 | 57.45769 | -36.40275 | 35313 ft | 514 kts | 73° |
| 2026-05-06 23:22 | 57.47217 | -36.27254 | 35314 ft | 515 kts | 73° |
| 2026-05-06 23:23 | 57.48648 | -36.14197 | 35315 ft | 516 kts | 73° |
| 2026-05-06 23:23 | 57.50070 | -36.01116 | 35313 ft | 517 kts | 73° |
| 2026-05-06 23:24 | 57.51483 | -35.87981 | 35316 ft | 518 kts | 73° |
| 2026-05-06 23:24 | 57.52886 | -35.74826 | 35313 ft | 518 kts | 74° |
| 2026-05-06 23:25 | 57.54267 | -35.61714 | 35313 ft | 519 kts | 74° |
| 2026-05-06 23:25 | 57.55643 | -35.48512 | 35311 ft | 519 kts | 74° |
| 2026-05-06 23:26 | 57.57004 | -35.35315 | 35314 ft | 518 kts | 74° |
| 2026-05-06 23:26 | 57.58347 | -35.22129 | 35310 ft | 518 kts | 74° |
| 2026-05-06 23:27 | 57.59681 | -35.08944 | 35314 ft | 518 kts | 75° |
| 2026-05-06 23:27 | 57.60997 | -34.95725 | 35311 ft | 518 kts | 75° |
| 2026-05-06 23:28 | 57.62304 | -34.82478 | 35313 ft | 519 kts | 75° |
| 2026-05-06 23:28 | 57.63593 | -34.69259 | 35313 ft | 520 kts | 75° |
| 2026-05-06 23:29 | 57.64876 | -34.55957 | 35314 ft | 521 kts | 75° |
| 2026-05-06 23:29 | 57.66149 | -34.42608 | 35312 ft | 522 kts | 75° |
| 2026-05-06 23:30 | 57.67412 | -34.29241 | 35313 ft | 523 kts | 75° |
| 2026-05-06 23:30 | 57.68658 | -34.15832 | 35315 ft | 524 kts | 75° |
| 2026-05-06 23:31 | 57.69886 | -34.02453 | 35313 ft | 526 kts | 76° |
| 2026-05-06 23:31 | 57.71113 | -33.88944 | 35314 ft | 527 kts | 76° |
| 2026-05-06 23:32 | 57.72330 | -33.75402 | 35313 ft | 527 kts | 76° |
| 2026-05-06 23:32 | 57.73528 | -33.61856 | 35317 ft | 528 kts | 76° |
| 2026-05-06 23:33 | 57.74712 | -33.48298 | 35311 ft | 527 kts | 76° |
| 2026-05-06 23:33 | 57.75879 | -33.34755 | 35314 ft | 527 kts | 76° |
| 2026-05-06 23:34 | 57.77033 | -33.21213 | 35312 ft | 527 kts | 77° |
| 2026-05-06 23:34 | 57.78173 | -33.07655 | 35312 ft | 526 kts | 77° |
| 2026-05-06 23:35 | 57.79292 | -32.94200 | 35311 ft | 525 kts | 77° |
| 2026-05-06 23:35 | 57.80401 | -32.80653 | 35311 ft | 526 kts | 77° |
| 2026-05-06 23:36 | 57.81495 | -32.67098 | 35311 ft | 526 kts | 78° |
| 2026-05-06 23:36 | 57.82574 | -32.53505 | 35312 ft | 526 kts | 78° |
| 2026-05-06 23:37 | 57.83647 | -32.39901 | 35313 ft | 528 kts | 78° |
| 2026-05-06 23:37 | 57.84702 | -32.26247 | 35322 ft | 528 kts | 78° |
| 2026-05-06 23:38 | 57.85736 | -32.12663 | 35321 ft | 529 kts | 78° |
| 2026-05-06 23:38 | 57.86769 | -31.98946 | 35325 ft | 530 kts | 78° |
| 2026-05-06 23:39 | 57.87782 | -31.85209 | 35323 ft | 531 kts | 78° |
| 2026-05-06 23:39 | 57.88787 | -31.71411 | 35325 ft | 533 kts | 79° |
| 2026-05-06 23:40 | 57.89778 | -31.57603 | 35321 ft | 533 kts | 79° |
| 2026-05-06 23:40 | 57.90593 | -31.46132 | 35323 ft | 532 kts | 79° |
| 2026-05-06 23:41 | 57.91557 | -31.32322 | 35320 ft | 532 kts | 79° |
| 2026-05-06 23:41 | 57.92505 | -31.18505 | 35319 ft | 531 kts | 79° |
| 2026-05-06 23:42 | 57.93433 | -31.04734 | 35314 ft | 530 kts | 79° |
| 2026-05-06 23:42 | 57.94347 | -30.90941 | 35302 ft | 531 kts | 80° |
| 2026-05-06 23:43 | 57.95243 | -30.77229 | 35297 ft | 531 kts | 80° |
| 2026-05-06 23:43 | 57.96129 | -30.63446 | 35306 ft | 531 kts | 80° |
| 2026-05-06 23:44 | 57.96998 | -30.49641 | 35300 ft | 530 kts | 81° |
| 2026-05-06 23:44 | 57.97850 | -30.35848 | 35297 ft | 530 kts | 81° |
| 2026-05-06 23:45 | 57.98691 | -30.22049 | 35306 ft | 531 kts | 81° |
| 2026-05-06 23:45 | 57.99520 | -30.08185 | 35307 ft | 533 kts | 81° |
| 2026-05-06 23:46 | 58.00304 | -29.94292 | 35305 ft | 534 kts | 82° |
| 2026-05-06 23:46 | 58.00846 | -29.80300 | 35305 ft | 535 kts | 84° |
| 2026-05-06 23:47 | 58.01309 | -29.66264 | 35306 ft | 536 kts | 84° |
| 2026-05-06 23:47 | 58.01782 | -29.52313 | 35306 ft | 537 kts | 84° |
| 2026-05-06 23:48 | 58.02271 | -29.38251 | 35303 ft | 536 kts | 84° |
| 2026-05-06 23:48 | 58.02751 | -29.24207 | 35306 ft | 536 kts | 84° |
| 2026-05-06 23:49 | 58.03206 | -29.10192 | 35301 ft | 534 kts | 84° |
| 2026-05-06 23:49 | 58.03652 | -28.96198 | 35302 ft | 535 kts | 84° |
| 2026-05-06 23:50 | 58.04079 | -28.82289 | 35305 ft | 534 kts | 84° |
| 2026-05-06 23:50 | 58.04690 | -28.61230 | 35299 ft | 536 kts | 85° |
| 2026-05-06 23:51 | 58.05083 | -28.47117 | 35307 ft | 538 kts | 85° |
| 2026-05-06 23:51 | 58.05461 | -28.33012 | 35306 ft | 538 kts | 85° |
| 2026-05-06 23:52 | 58.05822 | -28.18858 | 35298 ft | 540 kts | 85° |
| 2026-05-06 23:52 | 58.06166 | -28.04701 | 35299 ft | 541 kts | 85° |
| 2026-05-06 23:53 | 58.06497 | -27.90581 | 35296 ft | 541 kts | 86° |
| 2026-05-06 23:53 | 58.06814 | -27.76376 | 35298 ft | 541 kts | 86° |
| 2026-05-06 23:54 | 58.07114 | -27.62174 | 35296 ft | 541 kts | 86° |
| 2026-05-06 23:54 | 58.07398 | -27.47964 | 35260 ft | 542 kts | 86° |
| 2026-05-06 23:55 | 58.07667 | -27.33742 | 35249 ft | 541 kts | 86° |
| 2026-05-06 23:55 | 58.07916 | -27.19625 | 35243 ft | 540 kts | 86° |
| 2026-05-06 23:56 | 58.08153 | -27.05453 | 35245 ft | 540 kts | 86° |
| 2026-05-06 23:56 | 58.08374 | -26.91277 | 35248 ft | 539 kts | 86° |
| 2026-05-06 23:57 | 58.08581 | -26.77087 | 35251 ft | 540 kts | 87° |
| 2026-05-06 23:57 | 58.08769 | -26.62867 | 35249 ft | 541 kts | 87° |
| 2026-05-06 23:58 | 58.08942 | -26.48624 | 35249 ft | 542 kts | 87° |
| 2026-05-06 23:58 | 58.09099 | -26.34341 | 35248 ft | 543 kts | 88° |
| 2026-05-06 23:59 | 58.09245 | -26.20060 | 35249 ft | 544 kts | 88° |
| 2026-05-06 23:59 | 58.09367 | -26.05810 | 35250 ft | 546 kts | 88° |
| 2026-05-07 00:00 | 58.09481 | -25.91463 | 35248 ft | 547 kts | 88° |
| 2026-05-07 00:00 | 58.09574 | -25.77081 | 35242 ft | 548 kts | 88° |
| 2026-05-07 00:01 | 58.09652 | -25.62662 | 35240 ft | 548 kts | 88° |
| 2026-05-07 00:01 | 58.09714 | -25.48249 | 35240 ft | 547 kts | 89° |
| 2026-05-07 00:02 | 58.09760 | -25.33865 | 35239 ft | 547 kts | 89° |
| 2026-05-07 00:02 | 58.09790 | -25.19566 | 35236 ft | 546 kts | 89° |
| 2026-05-07 00:03 | 58.09806 | -25.05205 | 35238 ft | 546 kts | 89° |
| 2026-05-07 00:03 | 58.09810 | -24.90816 | 35241 ft | 546 kts | 89° |
| 2026-05-07 00:04 | 58.09788 | -24.76465 | 35233 ft | 545 kts | 89° |
| 2026-05-07 00:04 | 58.09749 | -24.62207 | 35223 ft | 546 kts | 90° |
| 2026-05-07 00:05 | 58.09701 | -24.47851 | 35233 ft | 546 kts | 90° |
| 2026-05-07 00:05 | 58.09636 | -24.33471 | 35230 ft | 546 kts | 90° |
| 2026-05-07 00:06 | 58.09547 | -24.19111 | 35231 ft | 547 kts | 90° |
| 2026-05-07 00:06 | 58.09448 | -24.04712 | 35234 ft | 548 kts | 90° |
| 2026-05-07 00:07 | 58.09334 | -23.90280 | 35230 ft | 549 kts | 91° |
| 2026-05-07 00:07 | 58.09199 | -23.75881 | 35221 ft | 543 kts | 90° |
| 2026-05-07 00:08 | 58.09057 | -23.61721 | 35205 ft | 536 kts | 90° |
| 2026-05-07 00:08 | 58.08898 | -23.47652 | 35208 ft | 534 kts | 90° |
| 2026-05-07 00:09 | 58.08723 | -23.33612 | 35202 ft | 534 kts | 90° |
| 2026-05-07 00:09 | 58.08531 | -23.19587 | 35201 ft | 533 kts | 91° |
| 2026-05-07 00:10 | 58.08326 | -23.05582 | 35203 ft | 534 kts | 91° |
| 2026-05-07 00:10 | 58.08110 | -22.91555 | 35200 ft | 535 kts | 91° |
| 2026-05-07 00:11 | 58.07871 | -22.77588 | 35208 ft | 536 kts | 91° |
| 2026-05-07 00:11 | 58.07610 | -22.63450 | 35208 ft | 538 kts | 91° |
| 2026-05-07 00:12 | 58.07343 | -22.49292 | 35194 ft | 540 kts | 92° |
| 2026-05-07 00:12 | 58.07058 | -22.35076 | 35185 ft | 542 kts | 92° |
| 2026-05-07 00:13 | 58.06753 | -22.20845 | 35184 ft | 542 kts | 92° |
| 2026-05-07 00:13 | 58.06436 | -22.06677 | 35189 ft | 544 kts | 92° |
| 2026-05-07 00:14 | 58.06099 | -21.92383 | 35182 ft | 545 kts | 92° |
| 2026-05-07 00:14 | 58.05743 | -21.78077 | 35179 ft | 545 kts | 93° |
| 2026-05-07 00:15 | 58.05372 | -21.63818 | 35191 ft | 544 kts | 92° |
| 2026-05-07 00:15 | 58.04992 | -21.49519 | 35182 ft | 543 kts | 93° |
| 2026-05-07 00:16 | 58.04595 | -21.35275 | 35182 ft | 543 kts | 93° |
| 2026-05-07 00:16 | 58.04183 | -21.21135 | 35182 ft | 541 kts | 93° |
| 2026-05-07 00:17 | 58.03750 | -21.06949 | 35171 ft | 541 kts | 94° |
| 2026-05-07 00:17 | 58.03304 | -20.92791 | 35176 ft | 540 kts | 94° |
| 2026-05-07 00:18 | 58.02847 | -20.78653 | 35173 ft | 540 kts | 94° |
| 2026-05-07 00:18 | 58.02371 | -20.64513 | 35177 ft | 540 kts | 94° |
| 2026-05-07 00:19 | 58.01879 | -20.50383 | 35176 ft | 540 kts | 95° |
| 2026-05-07 00:19 | 58.01371 | -20.36246 | 35176 ft | 540 kts | 95° |
| 2026-05-07 00:20 | 58.00851 | -20.22187 | 35175 ft | 541 kts | 95° |
| 2026-05-07 00:20 | 58.00310 | -20.08026 | 35175 ft | 541 kts | 96° |
| 2026-05-07 00:21 | 57.99028 | -19.94073 | 35169 ft | 539 kts | 107° |
| 2026-05-07 00:21 | 57.96687 | -19.80658 | 35158 ft | 539 kts | 111° |
| 2026-05-07 00:22 | 57.94234 | -19.67316 | 35170 ft | 539 kts | 111° |
| 2026-05-07 00:22 | 57.91804 | -19.53957 | 35168 ft | 540 kts | 111° |
| 2026-05-07 00:23 | 57.89392 | -19.40594 | 35166 ft | 539 kts | 111° |
| 2026-05-07 00:23 | 57.86977 | -19.27253 | 35162 ft | 538 kts | 111° |
| 2026-05-07 00:24 | 57.84566 | -19.14038 | 35156 ft | 538 kts | 111° |
| 2026-05-07 00:24 | 57.82128 | -19.00804 | 35154 ft | 536 kts | 112° |
| 2026-05-07 00:25 | 57.79682 | -18.87611 | 35159 ft | 535 kts | 112° |
| 2026-05-07 00:25 | 57.77640 | -18.76677 | 35151 ft | 534 kts | 112° |
| 2026-05-07 00:26 | 57.74760 | -18.61341 | 35155 ft | 534 kts | 112° |
| 2026-05-07 00:26 | 57.72296 | -18.48322 | 35148 ft | 534 kts | 112° |
| 2026-05-07 00:27 | 57.69805 | -18.35231 | 35148 ft | 534 kts | 112° |
| 2026-05-07 00:27 | 57.67704 | -18.24278 | 35147 ft | 534 kts | 113° |
| 2026-05-07 00:28 | 57.65198 | -18.11321 | 35148 ft | 534 kts | 113° |
| 2026-05-07 00:28 | 57.62661 | -17.98282 | 35136 ft | 534 kts | 113° |
| 2026-05-07 00:29 | 57.60120 | -17.85254 | 35128 ft | 535 kts | 113° |
| 2026-05-07 00:30 | 57.54988 | -17.59261 | 35130 ft | 533 kts | 114° |
| 2026-05-07 00:30 | 57.52408 | -17.46321 | 35120 ft | 533 kts | 114° |
| 2026-05-07 00:31 | 57.49808 | -17.33397 | 35124 ft | 533 kts | 114° |
| 2026-05-07 00:31 | 57.47220 | -17.20568 | 35117 ft | 533 kts | 114° |
| 2026-05-07 00:32 | 57.44609 | -17.07693 | 35123 ft | 532 kts | 114° |
| 2026-05-07 00:32 | 57.41983 | -16.94873 | 35116 ft | 531 kts | 114° |
| 2026-05-07 00:33 | 57.39347 | -16.82089 | 35112 ft | 530 kts | 115° |
| 2026-05-07 00:33 | 57.36695 | -16.69316 | 35110 ft | 531 kts | 115° |
| 2026-05-07 00:34 | 57.34036 | -16.56567 | 35108 ft | 530 kts | 115° |
| 2026-05-07 00:34 | 57.31370 | -16.43850 | 35110 ft | 530 kts | 115° |
| 2026-05-07 00:35 | 57.28685 | -16.31141 | 35107 ft | 530 kts | 115° |
| 2026-05-07 00:35 | 57.25985 | -16.18443 | 35103 ft | 530 kts | 115° |
| 2026-05-07 00:36 | 57.23277 | -16.05781 | 35102 ft | 530 kts | 115° |
| 2026-05-07 00:36 | 57.20571 | -15.93214 | 35102 ft | 530 kts | 116° |
| 2026-05-07 00:37 | 57.17829 | -15.80558 | 35098 ft | 530 kts | 116° |
| 2026-05-07 00:37 | 57.15079 | -15.67931 | 35084 ft | 531 kts | 116° |
| 2026-05-07 00:38 | 57.12316 | -15.55310 | 35097 ft | 531 kts | 116° |
| 2026-05-07 00:38 | 57.09541 | -15.42723 | 35039 ft | 532 kts | 116° |
| 2026-05-07 00:39 | 57.06764 | -15.30191 | 34973 ft | 532 kts | 116° |
| 2026-05-07 00:39 | 57.03960 | -15.17616 | 34968 ft | 531 kts | 116° |
| 2026-05-07 00:40 | 57.01251 | -15.05011 | 34964 ft | 533 kts | 111° |
| 2026-05-07 00:40 | 56.99536 | -14.91718 | 34962 ft | 538 kts | 101° |
| 2026-05-07 00:41 | 56.98851 | -14.77970 | 34957 ft | 540 kts | 97° |
| 2026-05-07 00:41 | 56.98273 | -14.64252 | 34962 ft | 540 kts | 97° |
| 2026-05-07 00:42 | 56.97622 | -14.50532 | 34963 ft | 540 kts | 98° |
| 2026-05-07 00:42 | 56.96928 | -14.36806 | 34962 ft | 540 kts | 98° |
| 2026-05-07 00:43 | 56.96225 | -14.23201 | 34958 ft | 540 kts | 98° |
| 2026-05-07 00:43 | 56.95510 | -14.09507 | 34954 ft | 540 kts | 98° |
| 2026-05-07 00:44 | 56.94482 | -13.95905 | 34940 ft | 536 kts | 107° |
| 2026-05-07 00:44 | 56.92460 | -13.82780 | 34958 ft | 534 kts | 110° |
| 2026-05-07 00:45 | 56.90358 | -13.69723 | 34955 ft | 536 kts | 110° |
| 2026-05-07 00:45 | 56.88297 | -13.56715 | 34954 ft | 536 kts | 110° |
| 2026-05-07 00:46 | 56.86242 | -13.43598 | 34949 ft | 536 kts | 110° |
| 2026-05-07 00:46 | 56.84178 | -13.30523 | 34952 ft | 536 kts | 110° |
| 2026-05-07 00:47 | 56.82091 | -13.17422 | 34943 ft | 536 kts | 110° |
| 2026-05-07 00:47 | 56.80007 | -13.04453 | 34949 ft | 535 kts | 110° |
| 2026-05-07 00:48 | 56.77903 | -12.91445 | 34939 ft | 535 kts | 110° |
| 2026-05-07 00:48 | 56.75785 | -12.78457 | 34944 ft | 534 kts | 110° |
| 2026-05-07 00:49 | 56.73659 | -12.65491 | 34948 ft | 534 kts | 110° |
| 2026-05-07 00:49 | 56.71516 | -12.52563 | 34943 ft | 533 kts | 110° |
| 2026-05-07 00:50 | 56.69368 | -12.39652 | 34940 ft | 532 kts | 110° |
| 2026-05-07 00:50 | 56.67207 | -12.26785 | 34934 ft | 531 kts | 110° |
| 2026-05-07 00:51 | 56.65046 | -12.14020 | 34935 ft | 530 kts | 110° |
| 2026-05-07 00:51 | 56.62864 | -12.01225 | 34933 ft | 530 kts | 110° |
| 2026-05-07 00:52 | 56.60671 | -11.88443 | 34936 ft | 529 kts | 110° |
| 2026-05-07 00:52 | 56.58470 | -11.75694 | 34934 ft | 529 kts | 110° |
| 2026-05-07 00:53 | 56.56258 | -11.62977 | 34934 ft | 528 kts | 110° |
| 2026-05-07 00:53 | 56.54028 | -11.50280 | 34932 ft | 528 kts | 111° |
| 2026-05-07 00:54 | 56.51786 | -11.37574 | 34936 ft | 529 kts | 111° |
| 2026-05-07 00:54 | 56.49548 | -11.24974 | 34940 ft | 530 kts | 111° |
| 2026-05-07 00:55 | 56.47276 | -11.12265 | 34930 ft | 530 kts | 111° |
| 2026-05-07 00:55 | 56.44986 | -10.99571 | 34928 ft | 531 kts | 111° |
| 2026-05-07 00:56 | 56.42685 | -10.86877 | 34925 ft | 532 kts | 111° |
| 2026-05-07 00:56 | 56.40363 | -10.74181 | 34926 ft | 532 kts | 111° |
| 2026-05-07 00:57 | 56.38025 | -10.61478 | 34919 ft | 533 kts | 111° |
| 2026-05-07 00:57 | 56.35691 | -10.48864 | 34907 ft | 533 kts | 111° |
| 2026-05-07 00:58 | 56.33331 | -10.36196 | 34911 ft | 533 kts | 111° |
| 2026-05-07 00:58 | 56.30961 | -10.23553 | 34908 ft | 532 kts | 111° |
| 2026-05-07 00:59 | 56.27386 | -10.04652 | 34906 ft | 531 kts | 111° |
| 2026-05-07 01:00 | 56.24991 | -9.92179 | 34905 ft | 529 kts | 111° |
| 2026-05-07 01:00 | 56.22543 | -9.79701 | 34912 ft | 529 kts | 111° |
| 2026-05-07 01:01 | 56.20075 | -9.67245 | 34907 ft | 528 kts | 111° |
| 2026-05-07 01:01 | 56.17608 | -9.54822 | 34903 ft | 528 kts | 111° |
| 2026-05-07 01:02 | 56.15136 | -9.42421 | 34909 ft | 528 kts | 111° |
| 2026-05-07 01:02 | 56.12645 | -9.30024 | 34911 ft | 529 kts | 112° |
| 2026-05-07 01:03 | 56.10142 | -9.17617 | 34910 ft | 530 kts | 112° |
| 2026-05-07 01:03 | 56.07618 | -9.05189 | 34907 ft | 531 kts | 112° |
| 2026-05-07 01:04 | 56.05074 | -8.92759 | 34912 ft | 533 kts | 112° |
| 2026-05-07 01:04 | 56.02509 | -8.80304 | 34914 ft | 534 kts | 112° |
| 2026-05-07 01:05 | 55.99929 | -8.67861 | 34917 ft | 534 kts | 112° |
| 2026-05-07 01:05 | 55.97332 | -8.55406 | 34923 ft | 533 kts | 111° |
| 2026-05-07 01:06 | 55.94751 | -8.43091 | 34922 ft | 531 kts | 111° |
| 2026-05-07 01:06 | 55.92147 | -8.30743 | 34928 ft | 530 kts | 111° |
| 2026-05-07 01:07 | 55.89535 | -8.18445 | 34925 ft | 530 kts | 112° |
| 2026-05-07 01:07 | 55.86908 | -8.06163 | 34924 ft | 531 kts | 112° |
| 2026-05-07 01:08 | 55.84291 | -7.93966 | 34929 ft | 531 kts | 112° |
| 2026-05-07 01:08 | 55.81643 | -7.81712 | 34925 ft | 531 kts | 112° |
| 2026-05-07 01:09 | 55.78983 | -7.69469 | 34928 ft | 530 kts | 112° |
| 2026-05-07 01:09 | 55.76308 | -7.57235 | 34935 ft | 531 kts | 112° |
| 2026-05-07 01:10 | 55.73619 | -7.45023 | 34934 ft | 530 kts | 112° |
| 2026-05-07 01:10 | 55.70927 | -7.32870 | 34935 ft | 529 kts | 112° |
| 2026-05-07 01:11 | 55.68230 | -7.20757 | 34935 ft | 528 kts | 112° |
| 2026-05-07 01:11 | 55.65545 | -7.08754 | 34937 ft | 526 kts | 112° |
| 2026-05-07 01:12 | 55.62842 | -6.96725 | 34934 ft | 525 kts | 112° |
| 2026-05-07 01:12 | 55.60123 | -6.84725 | 34948 ft | 525 kts | 112° |
| 2026-05-07 01:13 | 55.57858 | -6.74781 | 34935 ft | 525 kts | 112° |
| 2026-05-07 01:13 | 55.55121 | -6.62835 | 34945 ft | 524 kts | 112° |
| 2026-05-07 01:14 | 55.52375 | -6.50899 | 34943 ft | 525 kts | 112° |
| 2026-05-07 01:14 | 55.49617 | -6.38982 | 34947 ft | 524 kts | 112° |
| 2026-05-07 01:15 | 55.46848 | -6.27073 | 34941 ft | 525 kts | 112° |
| 2026-05-07 01:15 | 55.44060 | -6.15152 | 34951 ft | 527 kts | 112° |
| 2026-05-07 01:16 | 55.41275 | -6.03316 | 34943 ft | 527 kts | 112° |
| 2026-05-07 01:16 | 55.38452 | -5.91399 | 34956 ft | 528 kts | 112° |
| 2026-05-07 01:17 | 55.35620 | -5.79488 | 34962 ft | 527 kts | 112° |
| 2026-05-07 01:17 | 55.32784 | -5.67626 | 34966 ft | 526 kts | 112° |
| 2026-05-07 01:18 | 55.29935 | -5.55791 | 34966 ft | 526 kts | 112° |
| 2026-05-07 01:18 | 55.27100 | -5.44065 | 34965 ft | 524 kts | 112° |
| 2026-05-07 01:19 | 55.24246 | -5.32320 | 34969 ft | 523 kts | 112° |
| 2026-05-07 01:19 | 55.21384 | -5.20614 | 34971 ft | 522 kts | 112° |
| 2026-05-07 01:20 | 55.18519 | -5.08956 | 34977 ft | 520 kts | 112° |
| 2026-05-07 01:20 | 55.15646 | -4.97340 | 34982 ft | 520 kts | 112° |
| 2026-05-07 01:21 | 55.12765 | -4.85743 | 34990 ft | 520 kts | 112° |
| 2026-05-07 01:21 | 55.09871 | -4.74156 | 34980 ft | 520 kts | 112° |
| 2026-05-07 01:22 | 55.06971 | -4.62595 | 34981 ft | 520 kts | 112° |
| 2026-05-07 01:22 | 55.04062 | -4.51042 | 35008 ft | 519 kts | 112° |
| 2026-05-07 01:23 | 55.01134 | -4.39518 | 34982 ft | 519 kts | 112° |
| 2026-05-07 01:23 | 54.98220 | -4.28097 | 34984 ft | 519 kts | 112° |
| 2026-05-07 01:24 | 54.95279 | -4.16619 | 35009 ft | 518 kts | 112° |
| 2026-05-07 01:24 | 54.92335 | -4.05175 | 35000 ft | 518 kts | 112° |
| 2026-05-07 01:25 | 54.89375 | -3.93748 | 35008 ft | 517 kts | 112° |
| 2026-05-07 01:25 | 54.86405 | -3.82342 | 35000 ft | 517 kts | 112° |
| 2026-05-07 01:26 | 54.83458 | -3.71070 | 35009 ft | 516 kts | 112° |
| 2026-05-07 01:26 | 54.80481 | -3.59740 | 35006 ft | 515 kts | 112° |
| 2026-05-07 01:27 | 54.77502 | -3.48451 | 35013 ft | 514 kts | 112° |
| 2026-05-07 01:27 | 54.74512 | -3.37185 | 35012 ft | 515 kts | 113° |
| 2026-05-07 01:28 | 54.71508 | -3.25933 | 35020 ft | 515 kts | 113° |
| 2026-05-07 01:28 | 54.68499 | -3.14706 | 35026 ft | 515 kts | 113° |
| 2026-05-07 01:29 | 54.65474 | -3.03483 | 35023 ft | 515 kts | 113° |
| 2026-05-07 01:29 | 54.62442 | -2.92293 | 35018 ft | 515 kts | 113° |
| 2026-05-07 01:30 | 54.59398 | -2.81096 | 35018 ft | 515 kts | 113° |
| 2026-05-07 01:30 | 54.56370 | -2.70016 | 35035 ft | 514 kts | 113° |
| 2026-05-07 01:31 | 54.53308 | -2.58873 | 35038 ft | 513 kts | 113° |
| 2026-05-07 01:31 | 54.50241 | -2.47766 | 35038 ft | 512 kts | 113° |
| 2026-05-07 01:32 | 54.47174 | -2.36708 | 35040 ft | 511 kts | 113° |
| 2026-05-07 01:32 | 54.44102 | -2.25687 | 35045 ft | 510 kts | 113° |
| 2026-05-07 01:33 | 54.41051 | -2.14793 | 35049 ft | 509 kts | 114° |
| 2026-05-07 01:33 | 54.37972 | -2.03859 | 35053 ft | 507 kts | 114° |
| 2026-05-07 01:34 | 54.34891 | -1.92968 | 35076 ft | 507 kts | 114° |
| 2026-05-07 01:34 | 54.31808 | -1.82096 | 35075 ft | 507 kts | 114° |
| 2026-05-07 01:35 | 54.28719 | -1.71264 | 35080 ft | 506 kts | 114° |
| 2026-05-07 01:35 | 54.25621 | -1.60455 | 35075 ft | 505 kts | 114° |
| 2026-05-07 01:36 | 54.22513 | -1.49658 | 35068 ft | 506 kts | 114° |
| 2026-05-07 01:36 | 54.19415 | -1.38925 | 35066 ft | 507 kts | 114° |
| 2026-05-07 01:37 | 54.16365 | -1.28057 | 35070 ft | 508 kts | 113° |
| 2026-05-07 01:37 | 54.13334 | -1.17148 | 35073 ft | 510 kts | 113° |
| 2026-05-07 01:38 | 54.10279 | -1.06212 | 35070 ft | 511 kts | 113° |
| 2026-05-07 01:38 | 54.07198 | -0.95278 | 35065 ft | 512 kts | 114° |
| 2026-05-07 01:39 | 54.04105 | -0.84371 | 35080 ft | 512 kts | 114° |
| 2026-05-07 01:39 | 54.00988 | -0.73440 | 35071 ft | 513 kts | 114° |
| 2026-05-07 01:40 | 53.97881 | -0.62597 | 35075 ft | 512 kts | 114° |
| 2026-05-07 01:40 | 53.94755 | -0.51744 | 35076 ft | 510 kts | 114° |
| 2026-05-07 01:41 | 53.91643 | -0.40986 | 35072 ft | 507 kts | 114° |
| 2026-05-07 01:41 | 53.88539 | -0.30291 | 35077 ft | 505 kts | 114° |
| 2026-05-07 01:42 | 53.85430 | -0.19630 | 35083 ft | 504 kts | 114° |
| 2026-05-07 01:42 | 53.82320 | -0.09014 | 35076 ft | 503 kts | 115° |
| 2026-05-07 01:43 | 53.79200 | 0.01583 | 35070 ft | 503 kts | 115° |
| 2026-05-07 01:43 | 53.76068 | 0.12190 | 35067 ft | 505 kts | 115° |
| 2026-05-07 01:44 | 53.72905 | 0.22834 | 35081 ft | 508 kts | 115° |
| 2026-05-07 01:44 | 53.69717 | 0.33519 | 35072 ft | 510 kts | 115° |
| 2026-05-07 01:45 | 53.66516 | 0.44202 | 35075 ft | 511 kts | 115° |
| 2026-05-07 01:45 | 53.63291 | 0.54915 | 35073 ft | 512 kts | 116° |
| 2026-05-07 01:46 | 53.60075 | 0.65549 | 35064 ft | 513 kts | 116° |
| 2026-05-07 01:46 | 53.57263 | 0.74816 | 35058 ft | 514 kts | 116° |
| 2026-05-07 01:47 | 53.54004 | 0.85503 | 35055 ft | 513 kts | 116° |
| 2026-05-07 01:47 | 53.50736 | 0.96175 | 35055 ft | 512 kts | 117° |
| 2026-05-07 01:48 | 53.47464 | 1.06811 | 35056 ft | 512 kts | 117° |
| 2026-05-07 01:48 | 53.44188 | 1.17408 | 35057 ft | 511 kts | 117° |
| 2026-05-07 01:49 | 53.40908 | 1.27983 | 35055 ft | 511 kts | 117° |
| 2026-05-07 01:49 | 53.37639 | 1.38473 | 35057 ft | 511 kts | 117° |
| 2026-05-07 01:50 | 53.34340 | 1.49013 | 35055 ft | 511 kts | 117° |
| 2026-05-07 01:50 | 53.31022 | 1.59562 | 35055 ft | 511 kts | 118° |
| 2026-05-07 01:51 | 53.27701 | 1.70079 | 35054 ft | 512 kts | 118° |
| 2026-05-07 01:51 | 53.24439 | 1.80368 | 35049 ft | 512 kts | 118° |
| 2026-05-07 01:52 | 53.21119 | 1.90795 | 35055 ft | 512 kts | 118° |
| 2026-05-07 01:52 | 53.17760 | 2.01288 | 35048 ft | 513 kts | 118° |
| 2026-05-07 01:53 | 53.14387 | 2.11780 | 35046 ft | 513 kts | 118° |
| 2026-05-07 01:53 | 53.11037 | 2.22168 | 35046 ft | 512 kts | 119° |
| 2026-05-07 01:54 | 53.07720 | 2.32411 | 34881 ft | 488 kts | 119° |
| 2026-05-07 01:54 | 53.06121 | 2.37331 | 34290 ft | 482 kts | 119° |
| 2026-05-07 01:54 | 53.04556 | 2.42241 | 33918 ft | 475 kts | 117° |
| 2026-05-07 01:55 | 53.01625 | 2.52214 | 33940 ft | 487 kts | 116° |
| 2026-05-07 01:55 | 52.98687 | 2.62423 | 33943 ft | 490 kts | 116° |
| 2026-05-07 01:56 | 52.95723 | 2.72570 | 33797 ft | 486 kts | 116° |
| 2026-05-07 01:56 | 52.94255 | 2.77544 | 33492 ft | 486 kts | 117° |
| 2026-05-07 01:56 | 52.92760 | 2.82581 | 33084 ft | 488 kts | 117° |
| 2026-05-07 01:56 | 52.91259 | 2.87620 | 32664 ft | 489 kts | 117° |
| 2026-05-07 01:57 | 52.89748 | 2.92676 | 31933 ft | 490 kts | 117° |
| 2026-05-07 01:57 | 52.88229 | 2.97745 | 30904 ft | 492 kts | 117° |
| 2026-05-07 01:57 | 52.86707 | 3.02820 | 29965 ft | 490 kts | 117° |
| 2026-05-07 01:57 | 52.85202 | 3.07839 | 29231 ft | 483 kts | 117° |
| 2026-05-07 01:58 | 52.83719 | 3.12775 | 28513 ft | 476 kts | 117° |
| 2026-05-07 01:58 | 52.82253 | 3.17642 | 27775 ft | 470 kts | 117° |
| 2026-05-07 01:58 | 52.80797 | 3.22462 | 27029 ft | 465 kts | 117° |
| 2026-05-07 01:58 | 52.79355 | 3.27233 | 26270 ft | 461 kts | 117° |
| 2026-05-07 01:59 | 52.77923 | 3.31955 | 25521 ft | 457 kts | 117° |
| 2026-05-07 01:59 | 52.76523 | 3.36568 | 24807 ft | 453 kts | 118° |
| 2026-05-07 01:59 | 52.75119 | 3.41184 | 24085 ft | 448 kts | 118° |
| 2026-05-07 01:59 | 52.73721 | 3.45769 | 23356 ft | 444 kts | 118° |
| 2026-05-07 02:00 | 52.72335 | 3.50304 | 22692 ft | 440 kts | 118° |
| 2026-05-07 02:00 | 52.70962 | 3.54784 | 22041 ft | 435 kts | 118° |
| 2026-05-07 02:00 | 52.69602 | 3.59220 | 21393 ft | 431 kts | 118° |
| 2026-05-07 02:00 | 52.68256 | 3.63599 | 20767 ft | 426 kts | 118° |
| 2026-05-07 02:01 | 52.66922 | 3.67935 | 20106 ft | 422 kts | 118° |
| 2026-05-07 02:01 | 52.66041 | 3.70794 | 19693 ft | 420 kts | 118° |
| 2026-05-07 02:01 | 52.64297 | 3.76441 | 18893 ft | 415 kts | 118° |
| 2026-05-07 02:01 | 52.62995 | 3.80650 | 18296 ft | 411 kts | 117° |
| 2026-05-07 02:02 | 52.61703 | 3.84817 | 17706 ft | 406 kts | 117° |
| 2026-05-07 02:02 | 52.60421 | 3.88952 | 17108 ft | 404 kts | 117° |
| 2026-05-07 02:02 | 52.59560 | 3.91719 | 16731 ft | 401 kts | 117° |
| 2026-05-07 02:02 | 52.57889 | 3.97082 | 15988 ft | 395 kts | 117° |
| 2026-05-07 02:03 | 52.57043 | 3.99793 | 15608 ft | 393 kts | 117° |
| 2026-05-07 02:03 | 52.55816 | 4.03720 | 15063 ft | 389 kts | 117° |
| 2026-05-07 02:03 | 52.54582 | 4.07665 | 14476 ft | 386 kts | 117° |
| 2026-05-07 02:03 | 52.53358 | 4.11570 | 13935 ft | 383 kts | 117° |
| 2026-05-07 02:04 | 52.52141 | 4.15447 | 13403 ft | 379 kts | 117° |
| 2026-05-07 02:04 | 52.50938 | 4.19273 | 12875 ft | 376 kts | 117° |
| 2026-05-07 02:04 | 52.49743 | 4.23071 | 12332 ft | 373 kts | 117° |
| 2026-05-07 02:04 | 52.48581 | 4.26755 | 11805 ft | 369 kts | 117° |
| 2026-05-07 02:05 | 52.47412 | 4.30455 | 11592 ft | 357 kts | 117° |
| 2026-05-07 02:05 | 52.46294 | 4.33991 | 11496 ft | 342 kts | 117° |
| 2026-05-07 02:05 | 52.45220 | 4.37383 | 11396 ft | 328 kts | 117° |
| 2026-05-07 02:05 | 52.44192 | 4.40631 | 11303 ft | 314 kts | 117° |
| 2026-05-07 02:06 | 52.43212 | 4.43713 | 11222 ft | 302 kts | 117° |
| 2026-05-07 02:06 | 52.42261 | 4.46710 | 11083 ft | 292 kts | 117° |
| 2026-05-07 02:06 | 52.41338 | 4.49598 | 10889 ft | 285 kts | 117° |
| 2026-05-07 02:06 | 52.40420 | 4.52475 | 10606 ft | 282 kts | 117° |
| 2026-05-07 02:07 | 52.39516 | 4.55310 | 10297 ft | 280 kts | 117° |
| 2026-05-07 02:07 | 52.37721 | 4.60931 | 9666 ft | 277 kts | 117° |
| 2026-05-07 02:07 | 52.36828 | 4.63723 | 9363 ft | 275 kts | 117° |
| 2026-05-07 02:08 | 52.35943 | 4.66490 | 9047 ft | 274 kts | 117° |
| 2026-05-07 02:08 | 52.35062 | 4.69236 | 8745 ft | 272 kts | 116° |
| 2026-05-07 02:08 | 52.34180 | 4.71977 | 8435 ft | 271 kts | 116° |
| 2026-05-07 02:08 | 52.33291 | 4.74671 | 8108 ft | 266 kts | 121° |
| 2026-05-07 02:09 | 52.32080 | 4.76934 | 7632 ft | 272 kts | 136° |
| 2026-05-07 02:09 | 52.30651 | 4.78931 | 7441 ft | 265 kts | 139° |
| 2026-05-07 02:09 | 52.29263 | 4.80828 | 7360 ft | 254 kts | 138° |
| 2026-05-07 02:09 | 52.27941 | 4.82676 | 7254 ft | 246 kts | 137° |
| 2026-05-07 02:10 | 52.26676 | 4.84480 | 7127 ft | 238 kts | 137° |
| 2026-05-07 02:10 | 52.25442 | 4.86253 | 6948 ft | 234 kts | 136° |
| 2026-05-07 02:10 | 52.24224 | 4.88008 | 6702 ft | 234 kts | 136° |
| 2026-05-07 02:10 | 52.22996 | 4.89701 | 6400 ft | 230 kts | 146° |
| 2026-05-07 02:11 | 52.21462 | 4.90449 | 5950 ft | 237 kts | 180° |
| 2026-05-07 02:11 | 52.19827 | 4.90271 | 5620 ft | 236 kts | 183° |
| 2026-05-07 02:11 | 52.18201 | 4.90108 | 5419 ft | 232 kts | 182° |
| 2026-05-07 02:11 | 52.16611 | 4.89958 | 5280 ft | 225 kts | 182° |
| 2026-05-07 02:12 | 52.15055 | 4.89815 | 5052 ft | 224 kts | 182° |
| 2026-05-07 02:12 | 52.13525 | 4.89672 | 4833 ft | 221 kts | 182° |
| 2026-05-07 02:12 | 52.12071 | 4.89111 | 4557 ft | 216 kts | 213° |
| 2026-05-07 02:12 | 52.11092 | 4.87368 | 4265 ft | 210 kts | 249° |
| 2026-05-07 02:13 | 52.10802 | 4.85082 | 3991 ft | 204 kts | 272° |
| 2026-05-07 02:13 | 52.10847 | 4.82777 | 3679 ft | 205 kts | 277° |
| 2026-05-07 02:13 | 52.11167 | 4.80582 | 3303 ft | 197 kts | 306° |
| 2026-05-07 02:13 | 52.12038 | 4.78915 | 2947 ft | 193 kts | 318° |
| 2026-05-07 02:14 | 52.12946 | 4.77397 | 2662 ft | 187 kts | 326° |
| 2026-05-07 02:14 | 52.14124 | 4.76539 | 2282 ft | 188 kts | 347° |
| 2026-05-07 02:14 | 52.15417 | 4.76360 | 2119 ft | 187 kts | 3° |
| 2026-05-07 02:14 | 52.16716 | 4.76492 | 2078 ft | 187 kts | 5° |
| 2026-05-07 02:15 | 52.17995 | 4.76631 | 2050 ft | 175 kts | 5° |
| 2026-05-07 02:15 | 52.19132 | 4.76760 | 1999 ft | 155 kts | 5° |
| 2026-05-07 02:15 | 52.20163 | 4.76871 | 1983 ft | 141 kts | 5° |
| 2026-05-07 02:15 | 52.21106 | 4.76987 | 1892 ft | 132 kts | 5° |
| 2026-05-07 02:16 | 52.21991 | 4.77081 | 1606 ft | 125 kts | 4° |
| 2026-05-07 02:16 | 52.22857 | 4.77142 | 1441 ft | 122 kts | 3° |
| 2026-05-07 02:16 | 52.23685 | 4.77215 | 1114 ft | 119 kts | 4° |
| 2026-05-07 02:16 | 52.24564 | 4.77321 | 999 ft | 131 kts | 5° |
| 2026-05-07 02:17 | 52.25481 | 4.77395 | 783 ft | 132 kts | 2° |
| 2026-05-07 02:17 | 52.26409 | 4.77465 | 598 ft | 133 kts | 4° |
| 2026-05-07 02:17 | 52.27323 | 4.77552 | 353 ft | 129 kts | 4° |
| 2026-05-07 02:17 | 52.28233 | 4.77646 | 174 ft | 132 kts | 4° |
| 2026-05-07 02:18 | 52.29144 | 4.77731 | 28 ft | 131 kts | 3° |
| 2026-05-07 02:18 | 52.29978 | 4.77812 | 1 ft | 106 kts | 4° |
| 2026-05-07 02:18 | 52.30586 | 4.77873 | 4 ft | 71 kts | 3° |
| 2026-05-07 02:18 | 52.30914 | 4.77841 | 2 ft | 40 kts | 339° |
| 2026-05-07 02:19 | 52.31109 | 4.77678 | 3 ft | 18 kts | 333° |
| 2026-05-07 02:19 | 52.31199 | 4.77641 | 3 ft | 13 kts | 1° |
| 2026-05-07 02:19 | 52.31275 | 4.77598 | 3 ft | 9 kts | 297° |
| 2026-05-07 02:19 | 52.31283 | 4.77497 | 3 ft | 9 kts | 275° |
| 2026-05-07 02:20 | 52.31288 | 4.77396 | 3 ft | 9 kts | 272° |
| 2026-05-07 02:20 | 52.31291 | 4.77296 | 3 ft | 9 kts | 273° |
| 2026-05-07 02:20 | 52.31295 | 4.77200 | 3 ft | 8 kts | 272° |
| 2026-05-07 02:20 | 52.31293 | 4.77119 | 3 ft | 6 kts | 277° |
| 2026-05-07 02:21 | 52.31310 | 4.77063 | 3 ft | 5 kts | 300° |
| 2026-05-07 02:21 | 52.31327 | 4.77016 | 3 ft | 4 kts | 302° |
| 2026-05-07 02:21 | 52.31338 | 4.76991 | 3 ft | 2 kts | 303° |
| 2026-05-07 02:21 | 52.31344 | 4.76974 | 3 ft | 0 kts | 303° |